Terminal Aerodrome Forecast
Issued by NWS

Home | Current Version | Previous Version | Text Only | Print | Product List | Glossary On
Versions: 1 2 3 4 5 6 7 8 9 10 11 12 13 14 15 16 17 18
678
FTUS46 KPDT 131120
TAFPSC
TAF
KPSC 131120Z 1312/1412 24008KT P6SM SCT050 BKN120
     FM131800 22011KT P6SM SCT070 BKN120
     FM132000 23014G20KT P6SM OVC090
     FM140000 22010G15KT P6SM VCSH OVC060
     FM140200 23010KT P6SM -RA OVC050=

USA.gov is the U.S. government's official web portal to all federal, state and local government web resources and services.